메인 페이지
METAR-TAF:

METAR-TAF

공항 :

Dalaman, 터키

위도: 36-42N, 경도: 028-47E, 고도: 7m

현재 날씨관측

예보는 30분 전, 13:55시(UTC)에 발표되었습니다.
남동11kt
온도 17°C
습도 68%
기압 1004 hPa
시정 10km 이상
고도 3000ft 상공 구름 보통
고도 8000ft 상공 구름 보통
약한소나기

METAR: LTBS 141355Z 14011KT 9999 -SHRA SCT030 SCT080 17/11 Q1004 TEMPO -TSRA RMK RWY19 12012KT

시각: 17:25 (14:25 UTC)

예보

예보는 3 시간 45분 전, 10:40시(UTC)에 발표되었습니다.
예보 대상 시간: 14일 12시부터 15일 12시까지 (UTC)
남남동15kt
시정 10km 이상
고도 2000ft 상공 구름 보통
고도 8000ft 상공 구름 많음
약한소나기
일시적
14일 12시부터 14일 16시까지 (UTC)
고도 1500ft 상공 구름 조금, 적란운.
고도 2000ft 상공 구름 많음
뇌우, 약한비
일시적
14일 18시부터 14일 22시까지 (UTC)
시정: 4000m
고도 1500ft 상공 구름 보통, 적란운.
고도 2000ft 상공 구름 많음
뇌우, 비
전환 중
15일 00시부터 15일 02시까지 (UTC)
여러 방향의 바람 2kt

TAF: LTBS 141040Z 1412/1512 16015KT 9999 -SHRA SCT020 BKN080 TEMPO 1412/1416 -TSRA FEW015CB BKN020 TEMPO 1418/1422 4000 TSRA SCT015CB BKN020 BECMG 1500/1502 VRB02KT

4,000개 이상의 공항 관측 자료 및 예보 (METAR 및 TAF 보고).

지도상에서 검색 가능한 기상관측소가 노란 점과 빨간 점으로 표시되어 있습니다.

기상관측소 명을 보려면 표시 위로 마우스를 이동하세요.

날씨 관측과 예보를 보려면 클릭하세요.

지도 변경 : 확대하려면 엑스 표시가 있는 녹색 버튼, 축소하려면 빼기 표시가 있는 녹색 버튼, 다음 페이지의 지도를 보려면 녹색 화살표를 클릭하세요.


METAR-TAF: